Time;durP1;ratioP1;P1;durP2;ratioP2;P2;SDS_P1;SDS_P2;PMS_P1;PMS_P2;Temp;Humidity;BMP_temperature;BMP_pressure;BME280_temperature;BME280_humidity;BME280_pressure;Samples;Min_cycle;Max_cycle;Signal;HPM_P1;HPM_P2
2021/03/22 00:00:33;;;;;;;16.03;3.17;;;6.60;64.80;;;;;;6218595;23;20113;-73
2021/03/22 00:03:00;;;;;;;24.40;3.90;;;6.50;64.60;;;;;;6245325;23;20055;-74
2021/03/22 00:05:26;;;;;;;14.77;3.13;;;6.50;64.70;;;;;;6218446;23;20035;-74
2021/03/22 00:07:53;;;;;;;23.37;3.93;;;6.50;64.80;;;;;;6244558;23;20324;-74
2021/03/22 00:10:20;;;;;;;12.60;4.00;;;6.50;64.80;;;;;;6245212;23;20042;-73
2021/03/22 00:12:49;;;;;;;15.30;3.10;;;6.50;64.70;;;;;;6217748;23;20047;-74
2021/03/22 00:15:17;;;;;;;16.57;3.20;;;6.50;64.90;;;;;;6245177;23;20027;-74
2021/03/22 00:17:43;;;;;;;14.90;3.00;;;6.50;64.90;;;;;;6217753;23;20013;-75
2021/03/22 00:20:10;;;;;;;19.07;3.90;;;6.50;65.30;;;;;;6218439;23;20095;-75
2021/03/22 00:22:36;;;;;;;21.73;3.30;;;6.50;65.20;;;;;;6244087;23;20007;-75
2021/03/22 00:25:03;;;;;;;14.20;3.10;;;6.50;65.10;;;;;;6218462;23;20000;-75
2021/03/22 00:27:28;;;;;;;23.60;3.80;;;6.50;65.30;;;;;;6218508;23;19996;-74
2021/03/22 00:29:54;;;;;;;24.63;3.27;;;6.50;65.40;;;;;;6244447;23;20005;-75
2021/03/22 00:32:20;;;;;;;15.90;3.33;;;6.40;65.40;;;;;;6218186;23;20008;-75
2021/03/22 00:34:45;;;;;;;18.80;3.00;;;6.40;65.50;;;;;;6244563;23;20003;-75
2021/03/22 00:37:11;;;;;;;15.53;3.30;;;6.40;65.80;;;;;;6218351;23;20026;-75
2021/03/22 00:39:36;;;;;;;20.53;3.13;;;6.40;65.80;;;;;;6217166;23;20480;-74
2021/03/22 00:42:03;;;;;;;17.67;3.57;;;6.30;65.90;;;;;;6217950;23;20058;-74
2021/03/22 00:44:29;;;;;;;20.10;4.13;;;6.30;66.00;;;;;;6217927;23;20430;-74
2021/03/22 00:46:54;;;;;;;15.47;3.73;;;6.30;66.30;;;;;;6241756;22;20095;-76
2021/03/22 00:49:21;;;;;;;19.87;4.00;;;6.30;66.50;;;;;;6217380;23;20020;-75
2021/03/22 00:51:46;;;;;;;20.60;3.83;;;6.30;66.10;;;;;;6243620;23;20047;-75
2021/03/22 00:54:12;;;;;;;11.80;3.73;;;6.30;66.10;;;;;;6218052;23;20395;-75
2021/03/22 00:56:38;;;;;;;21.00;3.17;;;6.30;66.10;;;;;;6217668;23;20423;-75
2021/03/22 00:59:03;;;;;;;14.20;3.67;;;6.30;66.10;;;;;;6218191;23;19997;-74
2021/03/22 01:01:29;;;;;;;13.97;3.10;;;6.30;66.20;;;;;;6244293;23;20054;-77
2021/03/22 01:03:55;;;;;;;24.40;3.67;;;6.30;66.30;;;;;;6218181;23;20292;-75
2021/03/22 01:06:21;;;;;;;14.70;3.60;;;6.30;66.60;;;;;;6218230;23;19996;-74
2021/03/22 01:08:47;;;;;;;22.00;4.00;;;6.30;66.30;;;;;;6217552;23;20004;-74
2021/03/22 01:11:20;;;;;;;22.90;3.67;;;6.30;66.20;;;;;;6218184;23;20019;-74
2021/03/22 01:13:55;;;;;;;23.40;3.50;;;6.30;66.30;;;;;;6244412;23;20379;-76
2021/03/22 01:16:32;;;;;;;17.57;3.70;;;6.30;66.40;;;;;;6244324;23;20007;-76
2021/03/22 01:19:00;;;;;;;15.77;3.37;;;6.30;66.50;;;;;;6218341;23;20003;-76
2021/03/22 01:21:39;;;;;;;17.57;3.53;;;6.30;66.30;;;;;;6218144;23;20419;-76
2021/03/22 01:24:07;;;;;;;23.93;3.60;;;6.30;66.30;;;;;;6218475;23;20346;-76
2021/03/22 01:26:35;;;;;;;17.83;3.67;;;6.30;66.40;;;;;;6243953;23;19999;-76
2021/03/22 01:29:23;;;;;;;13.97;3.57;;;6.30;66.50;;;;;;6218155;23;20410;-76
2021/03/22 01:31:49;;;;;;;22.20;3.87;;;6.30;66.20;;;;;;6217445;23;20168;-75
2021/03/22 01:34:16;;;;;;;15.67;3.47;;;6.30;66.20;;;;;;6218078;23;20028;-75
2021/03/22 01:36:42;;;;;;;16.83;3.40;;;6.30;66.10;;;;;;6244088;23;20353;-75
2021/03/22 01:39:09;;;;;;;20.00;3.73;;;6.30;66.40;;;;;;6244735;23;20410;-75
2021/03/22 01:42:06;;;;;;;22.27;3.80;;;6.40;66.60;;;;;;6243919;23;19992;-75
2021/03/22 01:44:39;;;;;;;15.33;3.37;;;6.30;66.50;;;;;;6216812;23;20004;-75
2021/03/22 01:47:16;;;;;;;12.80;3.40;;;6.30;66.30;;;;;;6244072;22;20015;-75
2021/03/22 01:50:01;;;;;;;17.90;3.50;;;6.30;66.60;;;;;;6243569;23;20071;-73
2021/03/22 01:52:29;;;;;;;12.50;3.30;;;6.20;66.70;;;;;;6218092;23;20012;-75
2021/03/22 01:54:55;;;;;;;17.27;3.30;;;6.20;67.00;;;;;;6244447;23;20063;-75
2021/03/22 01:57:34;;;;;;;15.33;3.33;;;6.30;66.60;;;;;;6243831;23;20020;-75
2021/03/22 02:00:03;;;;;;;21.00;3.47;;;6.20;66.50;;;;;;6218004;23;20022;-76
2021/03/22 02:02:28;;;;;;;16.10;3.63;;;6.20;66.70;;;;;;6244614;23;20008;-76
2021/03/22 02:04:55;;;;;;;14.07;3.50;;;6.20;66.70;;;;;;6217481;23;19996;-76
2021/03/22 02:07:20;;;;;;;14.10;3.30;;;6.20;66.60;;;;;;6244535;23;20419;-76
2021/03/22 02:09:46;;;;;;;13.70;3.20;;;6.20;66.50;;;;;;6217104;23;20007;-76
2021/03/22 02:12:19;;;;;;;16.60;3.40;;;6.20;66.40;;;;;;6219673;23;19996;-75
2021/03/22 02:14:45;;;;;;;16.47;3.33;;;6.20;66.30;;;;;;6218787;23;20004;-76
2021/03/22 02:17:28;;;;;;;17.90;3.07;;;6.20;66.10;;;;;;6246189;23;20014;-75
2021/03/22 02:19:53;;;;;;;;;;;6.30;66.00;;;;;;6219498;23;20027;-75
2021/03/22 02:22:57;;;;;;;13.53;2.57;;;6.30;65.60;;;;;;6246067;23;19904;-75
2021/03/22 02:25:54;;;;;;;21.90;3.37;;;6.20;65.80;;;;;;6246710;23;20020;-77
2021/03/22 02:28:52;;;;;;;14.80;2.90;;;6.20;65.70;;;;;;6219792;23;20046;-77
2021/03/22 02:31:46;;;;;;;18.13;3.83;;;6.30;65.90;;;;;;6219975;23;20016;-76
2021/03/22 02:34:30;;;;;;;15.63;2.77;;;6.30;65.20;;;;;;6219536;23;20075;-75
2021/03/22 02:37:20;;;;;;;14.63;3.40;;;6.20;65.30;;;;;;6246410;23;20042;-75
2021/03/22 02:39:59;;;;;;;13.33;2.37;;;6.30;65.20;;;;;;6245585;23;20427;-75
2021/03/22 02:42:27;;;;;;;22.43;3.70;;;6.20;65.10;;;;;;6219580;23;20050;-76
2021/03/22 02:44:53;;;;;;;16.63;2.90;;;6.20;65.10;;;;;;6245763;23;20059;-76
2021/03/22 02:47:26;;;;;;;15.60;2.67;;;6.20;65.20;;;;;;6219222;23;20062;-75
2021/03/22 02:49:55;;;;;;;14.43;2.37;;;6.10;65.80;;;;;;6218448;23;20053;-76
2021/03/22 02:52:38;;;;;;;16.83;3.20;;;6.20;65.30;;;;;;6246315;23;20003;-75
2021/03/22 02:55:31;;;;;;;15.47;2.60;;;6.20;65.00;;;;;;6219381;23;20000;-75
2021/03/22 02:57:59;;;;;;;12.63;2.80;;;6.10;64.90;;;;;;6192876;23;19996;-75
2021/03/22 03:00:29;;;;;;;13.70;2.67;;;6.10;65.00;;;;;;6219196;23;20024;-76
2021/03/22 03:03:01;;;;;;;15.40;2.70;;;6.10;64.90;;;;;;6219503;23;20315;-75
2021/03/22 03:05:30;;;;;;;14.45;2.40;;;6.10;65.70;;;;;;6219610;23;20000;-75
2021/03/22 03:08:07;;;;;;;15.63;3.13;;;6.10;65.00;;;;;;6246027;23;20019;-75
2021/03/22 03:10:33;;;;;;;15.87;2.67;;;6.10;64.90;;;;;;6218321;23;20035;-75
2021/03/22 03:12:59;;;;;;;11.10;2.57;;;6.20;64.90;;;;;;6219015;23;19996;-75
2021/03/22 03:15:25;;;;;;;13.83;2.50;;;6.20;64.70;;;;;;6219291;23;20027;-75
2021/03/22 03:17:52;;;;;;;15.40;2.63;;;6.20;64.50;;;;;;6218434;23;20079;-73
2021/03/22 03:20:24;;;;;;;13.77;2.60;;;6.20;64.40;;;;;;6218901;23;20007;-75
2021/03/22 03:22:50;;;;;;;;;;;6.20;64.30;;;;;;6218402;23;20004;-76
2021/03/22 03:25:16;;;;;;;14.30;2.43;;;6.20;64.20;;;;;;6219058;23;19915;-76
2021/03/22 03:27:42;;;;;;;16.63;2.43;;;6.10;64.20;;;;;;6218347;23;19996;-76
2021/03/22 03:30:19;;;;;;;12.70;2.40;;;6.10;64.30;;;;;;6219117;23;19996;-76
2021/03/22 03:32:45;;;;;;;18.77;2.70;;;6.10;64.50;;;;;;6218338;23;20050;-74
2021/03/22 03:35:12;;;;;;;18.23;2.90;;;6.10;64.40;;;;;;6245493;23;19997;-75
2021/03/22 03:37:39;;;;;;;12.97;2.27;;;6.10;64.30;;;;;;6218102;23;19996;-76
2021/03/22 03:40:10;;;;;;;11.00;2.47;;;6.10;64.40;;;;;;6218944;23;20405;-76
2021/03/22 03:42:36;;;;;;;11.02;2.22;;;6.00;64.00;;;;;;6245018;23;20007;-76
2021/03/22 03:45:07;;;;;;;16.33;2.50;;;6.00;64.30;;;;;;6218357;23;20007;-76
2021/03/22 03:47:35;;;;;;;14.37;2.47;;;6.10;64.10;;;;;;6218035;23;20027;-74
2021/03/22 03:50:03;;;;;;;10.90;2.27;;;6.10;64.20;;;;;;6218790;23;20292;-74
2021/03/22 03:52:28;;;;;;;14.47;3.50;;;6.10;64.10;;;;;;6218658;23;20368;-74
2021/03/22 03:54:54;;;;;;;16.67;2.53;;;6.00;64.10;;;;;;6218154;23;20028;-74
2021/03/22 03:57:19;;;;;;;13.40;2.70;;;6.10;63.70;;;;;;6245196;23;20000;-73
2021/03/22 03:59:45;;;;;;;12.63;2.43;;;6.10;63.70;;;;;;6218028;23;20415;-74
2021/03/22 04:02:10;;;;;;;14.03;3.03;;;6.00;63.90;;;;;;6218660;23;20000;-74
2021/03/22 04:04:36;;;;;;;11.13;2.23;;;6.00;64.10;;;;;;6217944;23;20430;-74
2021/03/22 04:07:02;;;;;;;12.97;2.63;;;6.10;64.30;;;;;;6218784;23;20000;-74
2021/03/22 04:09:27;;;;;;;9.30;2.00;;;6.10;63.90;;;;;;6218685;23;20314;-74
2021/03/22 04:11:53;;;;;;;10.73;2.30;;;6.00;63.80;;;;;;6217851;23;20008;-73
2021/03/22 04:14:26;;;;;;;12.13;2.63;;;6.00;64.10;;;;;;6245488;23;20418;-73
2021/03/22 04:16:52;;;;;;;12.00;2.57;;;6.00;64.10;;;;;;6244798;23;19992;-74
2021/03/22 04:19:18;;;;;;;18.37;3.13;;;6.00;64.00;;;;;;6218096;23;20418;-73
2021/03/22 04:21:45;;;;;;;14.10;1.80;;;6.00;64.20;;;;;;6217515;23;20451;-73
2021/03/22 04:24:12;;;;;;;12.70;2.67;;;6.00;64.20;;;;;;6245441;23;20023;-73
2021/03/22 04:26:38;;;;;;;19.17;2.77;;;6.00;64.30;;;;;;6244291;23;20028;-74
2021/03/22 04:29:04;;;;;;;17.00;3.00;;;6.10;64.00;;;;;;6218070;23;19992;-73
2021/03/22 04:31:30;;;;;;;10.90;2.03;;;6.00;64.00;;;;;;6218134;23;19996;-75
2021/03/22 04:33:57;;;;;;;10.90;2.30;;;6.10;63.90;;;;;;6218131;23;20000;-76
2021/03/22 04:36:25;;;;;;;13.10;1.87;;;6.00;63.80;;;;;;6218466;23;19996;-74
2021/03/22 04:38:51;;;;;;;13.33;3.10;;;6.00;63.80;;;;;;6217830;23;20028;-73
2021/03/22 04:41:17;;;;;;;13.13;2.37;;;6.00;63.80;;;;;;6245532;23;20304;-73
2021/03/22 04:43:43;;;;;;;14.10;2.70;;;6.00;63.90;;;;;;6217211;23;20055;-73
2021/03/22 04:46:09;;;;;;;10.73;2.07;;;6.00;63.80;;;;;;6218016;23;20039;-73
2021/03/22 04:48:35;;;;;;;12.53;2.13;;;6.00;64.10;;;;;;6217641;23;20000;-73
2021/03/22 04:51:00;;;;;;;11.83;1.83;;;6.00;64.20;;;;;;6244744;23;20315;-73
2021/03/22 04:53:26;;;;;;;12.63;2.83;;;6.00;64.00;;;;;;6218090;23;20086;-73
2021/03/22 04:55:52;;;;;;;13.53;2.33;;;6.00;63.70;;;;;;6217423;23;19996;-74
2021/03/22 04:58:17;;;;;;;12.63;1.97;;;6.00;63.90;;;;;;6218298;23;19997;-74
2021/03/22 05:00:45;;;;;;;10.97;1.80;;;6.00;63.70;;;;;;6244119;23;19996;-74
2021/03/22 05:03:15;;;;;;;15.00;1.90;;;6.00;63.60;;;;;;6218024;23;20000;-75
2021/03/22 05:05:41;;;;;;;16.37;2.40;;;5.90;63.80;;;;;;6217302;23;20026;-75
2021/03/22 05:08:10;;;;;;;18.10;3.23;;;5.90;64.30;;;;;;6218100;23;20004;-76
2021/03/22 05:10:42;;;;;;;9.23;1.90;;;5.90;63.90;;;;;;6244438;23;20000;-75
2021/03/22 05:13:09;;;;;;;11.63;2.58;;;6.00;64.00;;;;;;6244889;23;20046;-76
2021/03/22 05:15:35;;;;;;;14.77;1.70;;;6.00;63.80;;;;;;6216683;23;20011;-75
2021/03/22 05:18:01;;;;;;;12.77;1.87;;;6.00;63.90;;;;;;6218122;23;20000;-75
2021/03/22 05:20:31;;;;;;;12.33;1.97;;;5.90;64.10;;;;;;6244965;23;20022;-75
2021/03/22 05:23:04;;;;;;;12.67;2.20;;;5.90;64.20;;;;;;6217894;23;20008;-75
2021/03/22 05:25:30;;;;;;;13.23;2.10;;;5.90;64.30;;;;;;6218134;23;20777;-75
2021/03/22 05:27:57;;;;;;;10.97;1.57;;;5.90;64.40;;;;;;6244740;23;19997;-75
2021/03/22 05:30:23;;;;;;;8.33;2.13;;;5.90;64.40;;;;;;6218057;23;20002;-75
2021/03/22 05:32:49;;;;;;;11.00;2.20;;;5.90;64.20;;;;;;6217330;23;20004;-74
2021/03/22 05:35:21;;;;;;;9.10;1.60;;;6.00;64.10;;;;;;6217937;23;20307;-78
2021/03/22 05:37:47;;;;;;;9.70;2.10;;;6.00;64.50;;;;;;6244057;23;20427;-75
2021/03/22 05:40:35;;;;;;;15.77;2.00;;;6.00;63.90;;;;;;6217852;23;20000;-75
2021/03/22 05:43:04;;;;;;;12.23;1.77;;;6.00;63.60;;;;;;6217370;23;20011;-75
2021/03/22 05:45:50;;;;;;;5.87;1.60;;;6.00;63.90;;;;;;6218140;22;20034;-74
2021/03/22 05:48:48;;;;;;;11.20;1.70;;;5.90;64.00;;;;;;6220435;23;20004;-78
2021/03/22 05:51:31;;;;;;;11.60;1.80;;;6.00;63.70;;;;;;6220890;23;20327;-76
2021/03/22 05:54:12;;;;;;;9.10;1.57;;;5.90;64.00;;;;;;6218959;23;20008;-76
2021/03/22 05:56:45;;;;;;;11.90;1.83;;;6.00;63.80;;;;;;6218970;23;20423;-76
2021/03/22 05:59:31;;;;;;;9.83;2.07;;;6.00;63.90;;;;;;6246635;23;20442;-76
2021/03/22 06:02:03;;;;;;;11.40;1.80;;;6.00;63.50;;;;;;6219136;23;20011;-75
2021/03/22 06:04:42;;;;;;;9.10;1.90;;;6.00;63.80;;;;;;6220161;23;20008;-75
2021/03/22 06:07:11;;;;;;;13.93;1.77;;;6.00;64.10;;;;;;6220226;23;20004;-75
2021/03/22 06:09:44;;;;;;;15.90;1.83;;;6.00;64.00;;;;;;6219468;23;20382;-76
2021/03/22 06:12:38;;;;;;;9.87;1.80;;;6.00;64.20;;;;;;6220341;23;20008;-76
2021/03/22 06:15:40;;;;;;;14.73;2.40;;;6.00;63.70;;;;;;6246540;23;19996;-75
2021/03/22 06:18:26;;;;;;;13.17;2.37;;;6.00;63.60;;;;;;6142747;23;20008;-75
2021/03/22 06:20:53;;;;;;;11.33;2.00;;;6.10;63.40;;;;;;6246031;23;20001;-75
2021/03/22 06:23:33;;;;;;;8.30;2.10;;;6.10;64.00;;;;;;6219905;23;20004;-75
2021/03/22 06:25:59;;;;;;;10.00;1.80;;;6.10;63.40;;;;;;6246480;23;20023;-75
2021/03/22 06:28:29;;;;;;;7.67;1.43;;;6.10;63.50;;;;;;6246856;23;20423;-75
2021/03/22 06:31:08;;;;;;;9.80;2.70;;;6.10;63.60;;;;;;6219117;23;20485;-75
2021/03/22 06:33:42;;;;;;;10.43;1.90;;;6.20;63.80;;;;;;6246168;23;20083;-75
2021/03/22 06:36:11;;;;;;;11.33;1.80;;;6.20;63.90;;;;;;6219888;23;20004;-75
2021/03/22 06:38:37;;;;;;;13.77;1.60;;;6.20;63.80;;;;;;6219164;23;20492;-75
2021/03/22 06:41:27;;;;;;;11.90;1.87;;;6.20;63.60;;;;;;6246590;23;20006;-75
2021/03/22 06:43:55;;;;;;;11.03;1.50;;;6.10;63.60;;;;;;6218670;23;20039;-75
2021/03/22 06:46:20;;;;;;;10.07;1.60;;;6.20;63.50;;;;;;6219306;23;20027;-74
2021/03/22 06:49:20;;;;;;;7.77;1.47;;;6.20;63.60;;;;;;6219068;23;20008;-73
2021/03/22 06:52:09;;;;;;;9.93;1.80;;;6.20;63.60;;;;;;6245334;23;20004;-75
2021/03/22 06:54:40;;;;;;;13.07;2.03;;;6.20;63.70;;;;;;6219036;23;20367;-75
2021/03/22 06:57:14;;;;;;;10.27;2.43;;;6.20;63.60;;;;;;6219523;23;20419;-75
2021/03/22 07:00:06;;;;;;;10.57;2.43;;;6.30;63.90;;;;;;6245407;23;19996;-75
2021/03/22 07:02:44;;;;;;;13.63;1.53;;;6.20;64.00;;;;;;6245962;23;20339;-74
2021/03/22 07:05:20;;;;;;;12.87;1.80;;;6.20;63.90;;;;;;6219329;23;20130;-74
2021/03/22 07:08:06;;;;;;;11.03;2.03;;;6.20;64.10;;;;;;6245739;23;20479;-74
2021/03/22 07:10:40;;;;;;;11.30;1.90;;;6.20;63.90;;;;;;6219533;23;20027;-74
2021/03/22 07:13:17;;;;;;;10.67;2.37;;;6.30;63.20;;;;;;6219502;23;20015;-74
2021/03/22 07:15:45;;;;;;;11.63;1.50;;;6.30;63.30;;;;;;6218942;23;20008;-74
2021/03/22 07:18:15;;;;;;;11.67;2.50;;;6.30;63.90;;;;;;6219489;23;20007;-75
2021/03/22 07:20:43;;;;;;;9.73;2.03;;;6.40;63.30;;;;;;6218825;23;20046;-74
2021/03/22 07:23:24;;;;;;;9.10;1.70;;;6.40;63.20;;;;;;6245721;23;19997;-74
2021/03/22 07:25:53;;;;;;;9.70;1.97;;;6.40;63.40;;;;;;6245589;23;20000;-74
2021/03/22 07:28:41;;;;;;;16.40;2.03;;;6.40;63.10;;;;;;6246234;23;19996;-74
2021/03/22 07:31:18;;;;;;;9.20;1.83;;;6.40;63.40;;;;;;6219421;23;20076;-74
2021/03/22 07:33:57;;;;;;;9.13;1.83;;;6.40;63.30;;;;;;6245316;23;20009;-76
2021/03/22 07:36:39;;;;;;;9.37;2.40;;;6.40;63.40;;;;;;6219553;23;20004;-75
2021/03/22 07:39:30;;;;;;;7.55;1.40;;;6.50;63.20;;;;;;6219504;23;20027;-75
2021/03/22 07:42:31;;;;;;;9.97;1.80;;;6.60;63.10;;;;;;6245174;23;20407;-75
2021/03/22 07:45:33;;;;;;;6.03;1.63;;;6.70;63.00;;;;;;6218946;23;20080;-75
2021/03/22 07:48:14;;;;;;;14.85;2.38;;;6.60;62.70;;;;;;6218469;23;20020;-75
2021/03/22 07:51:21;;;;;;;13.60;1.80;;;6.70;63.20;;;;;;6218504;23;20011;-75
2021/03/22 07:53:56;;;;;;;8.40;1.60;;;6.80;62.40;;;;;;6245297;23;20062;-75
2021/03/22 07:56:48;;;;;;;11.80;2.20;;;6.70;62.80;;;;;;6219352;23;20042;-75
2021/03/22 07:59:42;;;;;;;12.43;2.17;;;6.70;62.90;;;;;;6150112;23;20390;-75
2021/03/22 08:02:51;;;;;;;12.53;2.33;;;6.70;62.60;;;;;;6214903;23;20008;-75
2021/03/22 08:05:40;;;;;;;13.17;2.07;;;6.80;63.20;;;;;;6219220;23;20099;-75
2021/03/22 08:08:38;;;;;;;6.03;1.30;;;6.80;62.80;;;;;;6218985;23;20005;-75
2021/03/22 08:11:20;;;;;;;7.37;1.97;;;6.80;62.50;;;;;;6187788;23;20004;-75
2021/03/22 08:14:02;;;;;;;3.53;1.00;;;6.80;62.90;;;;;;6245213;23;20006;-75
2021/03/22 08:16:48;;;;;;;6.90;1.67;;;6.90;62.50;;;;;;6245936;23;20004;-75
2021/03/22 08:19:29;;;;;;;8.60;1.90;;;6.90;62.20;;;;;;6219009;23;19996;-74
2021/03/22 08:22:13;;;;;;;7.37;2.20;;;7.00;62.20;;;;;;6217819;23;20062;-75
2021/03/22 08:25:04;;;;;;;7.50;1.60;;;7.00;62.60;;;;;;6245663;23;20008;-75
2021/03/22 08:27:34;;;;;;;7.03;1.80;;;7.00;62.10;;;;;;6245612;23;19992;-75
2021/03/22 08:30:07;;;;;;;9.63;1.97;;;7.00;62.30;;;;;;6244588;23;20534;-75
2021/03/22 08:32:56;;;;;;;10.57;2.00;;;7.00;62.30;;;;;;6218545;23;20008;-75
2021/03/22 08:35:32;;;;;;;9.43;1.80;;;6.90;62.80;;;;;;6218921;23;20004;-74
2021/03/22 08:38:01;;;;;;;7.93;1.53;;;7.10;62.60;;;;;;6218081;23;20000;-75
2021/03/22 08:40:54;;;;;;;7.30;1.63;;;7.10;62.30;;;;;;6245576;23;20078;-75
2021/03/22 08:43:29;;;;;;;7.60;2.00;;;7.20;62.30;;;;;;6218446;23;20018;-75
2021/03/22 08:46:02;;;;;;;5.73;2.00;;;7.30;61.70;;;;;;6244391;22;20016;-75
2021/03/22 08:48:29;;;;;;;14.50;2.70;;;7.30;61.60;;;;;;6218526;23;20007;-75
2021/03/22 08:50:59;;;;;;;6.67;1.50;;;7.30;61.60;;;;;;6244711;23;20007;-75
2021/03/22 08:53:31;;;;;;;11.90;1.90;;;7.30;61.60;;;;;;6218252;23;20031;-75
2021/03/22 08:56:04;;;;;;;6.17;2.20;;;7.30;61.80;;;;;;6217782;23;20022;-75
2021/03/22 08:58:44;;;;;;;7.17;1.80;;;7.30;62.30;;;;;;6244511;23;20000;-75
2021/03/22 09:01:28;;;;;;;13.03;1.87;;;7.30;62.30;;;;;;6218505;23;20004;-78
2021/03/22 09:03:58;;;;;;;7.57;1.80;;;7.40;62.30;;;;;;6243607;23;20028;-74
2021/03/22 09:06:29;;;;;;;10.83;2.00;;;7.40;61.90;;;;;;6218195;23;20388;-75
2021/03/22 09:09:25;;;;;;;4.65;1.60;;;7.50;62.40;;;;;;6217910;23;20086;-74
2021/03/22 09:11:51;;;;;;;7.90;1.53;;;7.50;62.00;;;;;;6217085;23;20427;-74
2021/03/22 09:14:32;;;;;;;9.57;1.83;;;7.40;61.70;;;;;;6218554;23;20030;-74
2021/03/22 09:16:59;;;;;;;9.23;2.00;;;7.40;61.70;;;;;;6243991;23;20004;-77
2021/03/22 09:19:39;;;;;;;14.27;1.83;;;7.40;62.20;;;;;;6244194;23;20000;-74
2021/03/22 09:22:05;;;;;;;11.67;2.23;;;7.40;61.90;;;;;;6241916;23;19992;-73
2021/03/22 09:24:40;;;;;;;8.87;2.20;;;7.40;61.90;;;;;;6243785;23;20004;-77
2021/03/22 09:27:15;;;;;;;8.27;1.90;;;7.50;61.80;;;;;;6244005;23;19996;-76
2021/03/22 09:29:44;;;;;;;8.97;1.80;;;7.50;61.80;;;;;;6217364;23;20058;-76
2021/03/22 09:32:25;;;;;;;7.07;1.90;;;7.60;61.80;;;;;;6217008;23;20008;-80
2021/03/22 09:35:04;;;;;;;13.17;2.27;;;7.60;61.80;;;;;;6243721;23;19996;-74
2021/03/22 09:37:48;;;;;;;8.97;2.00;;;7.70;61.10;;;;;;6243717;23;20447;-74
2021/03/22 09:40:23;;;;;;;8.63;2.40;;;7.70;61.10;;;;;;6243503;23;19996;-74
2021/03/22 09:43:32;;;;;;;46.83;16.47;;;7.70;61.20;;;;;;6216579;23;20030;-74
2021/03/22 09:46:01;;;;;;;11.30;3.33;;;7.80;61.50;;;;;;6171018;22;20032;-75
2021/03/22 09:48:36;;;;;;;8.67;2.63;;;7.80;61.10;;;;;;6218127;23;20000;-75
2021/03/22 09:51:04;;;;;;;12.63;2.40;;;7.90;60.90;;;;;;6244041;23;20003;-75
2021/03/22 09:53:48;;;;;;;9.63;2.33;;;8.00;60.80;;;;;;6217295;23;20004;-75
2021/03/22 09:56:33;;;;;;;8.73;2.37;;;8.00;60.50;;;;;;6244360;23;20031;-75
2021/03/22 09:59:38;;;;;;;12.10;2.60;;;8.00;60.70;;;;;;6242981;23;20361;-75
2021/03/22 10:02:45;;;;;;;6.83;2.07;;;8.00;60.90;;;;;;6243973;23;20095;-74
2021/03/22 10:05:52;;;;;;;7.37;1.90;;;8.00;60.40;;;;;;6217647;23;20036;-74
2021/03/22 10:08:39;;;;;;;8.00;1.60;;;8.00;60.40;;;;;;6218017;23;20431;-75
2021/03/22 10:11:23;;;;;;;7.33;1.83;;;8.00;60.30;;;;;;6217259;23;20005;-75
2021/03/22 10:13:51;;;;;;;8.45;1.73;;;8.10;60.10;;;;;;6216438;23;20031;-77
2021/03/22 10:16:17;;;;;;;9.50;1.88;;;8.10;59.90;;;;;;6217501;23;20006;-74
2021/03/22 10:18:48;;;;;;;6.83;2.07;;;8.10;59.80;;;;;;6217530;23;20000;-74
2021/03/22 10:21:36;;;;;;;7.50;1.90;;;8.20;59.90;;;;;;6217449;23;20059;-74
2021/03/22 10:24:27;;;;;;;4.77;1.93;;;8.20;59.80;;;;;;6215546;23;20018;-73
2021/03/22 10:26:55;;;;;;;6.83;2.20;;;8.20;60.40;;;;;;6243912;23;20004;-74
2021/03/22 10:29:24;;;;;;;8.18;2.63;;;8.20;60.30;;;;;;6218012;23;20004;-73
2021/03/22 10:32:01;;;;;;;6.28;2.05;;;8.10;60.80;;;;;;6244699;23;20068;-74
2021/03/22 10:34:41;;;;;;;5.75;1.80;;;8.10;60.80;;;;;;6219732;23;20415;-74
2021/03/22 10:37:33;;;;;;;8.37;2.07;;;8.10;60.90;;;;;;6218929;23;20008;-73
2021/03/22 10:40:21;;;;;;;8.10;1.80;;;8.00;60.50;;;;;;6219070;23;20004;-74
2021/03/22 10:42:49;;;;;;;5.43;1.97;;;8.00;61.10;;;;;;6198746;23;20443;-74
2021/03/22 10:45:18;;;;;;;6.50;1.67;;;8.00;60.70;;;;;;6219779;23;20142;-73
2021/03/22 10:47:44;;;;;;;7.53;2.00;;;7.90;60.50;;;;;;6219497;23;20043;-74
2021/03/22 10:50:30;;;;;;;9.18;2.30;;;7.90;60.90;;;;;;6245756;23;19993;-74
2021/03/22 10:53:17;;;;;;;10.27;2.30;;;7.90;61.10;;;;;;6245669;23;20003;-73
2021/03/22 10:55:48;;;;;;;5.50;1.70;;;7.90;60.90;;;;;;6246218;23;19992;-76
2021/03/22 10:58:44;;;;;;;8.88;2.30;;;7.90;60.70;;;;;;6219469;23;20004;-75
2021/03/22 11:01:10;;;;;;;5.83;2.00;;;7.90;60.70;;;;;;6245734;23;19996;-75
2021/03/22 11:03:36;;;;;;;13.43;2.33;;;7.90;60.90;;;;;;6219373;23;20438;-75
2021/03/22 11:06:11;;;;;;;8.50;2.25;;;8.00;60.70;;;;;;6218356;23;20008;-75
2021/03/22 11:08:41;;;;;;;9.88;2.30;;;7.90;60.60;;;;;;6246171;23;19997;-75
2021/03/22 11:11:18;;;;;;;8.05;1.83;;;7.90;60.80;;;;;;6218773;23;20290;-74
2021/03/22 11:13:48;;;;;;;8.37;2.03;;;7.90;60.70;;;;;;6246429;23;20067;-74
2021/03/22 11:16:27;;;;;;;8.80;1.93;;;7.80;60.80;;;;;;6246296;23;20003;-74
2021/03/22 11:18:54;;;;;;;5.30;2.27;;;7.80;61.00;;;;;;6245105;23;20046;-74
2021/03/22 11:21:25;;;;;;;5.83;2.27;;;7.80;61.30;;;;;;6218966;23;20007;-75
2021/03/22 11:23:53;;;;;;;8.23;2.00;;;7.80;61.00;;;;;;6218573;23;20091;-75
2021/03/22 11:26:30;;;;;;;10.57;3.63;;;7.80;61.30;;;;;;6245725;23;20474;-75
2021/03/22 11:29:14;;;;;;;17.77;8.03;;;7.80;61.50;;;;;;6244876;23;20022;-75
2021/03/22 11:31:43;;;;;;;12.15;5.38;;;7.90;61.20;;;;;;6244971;23;20001;-75
2021/03/22 11:34:15;;;;;;;8.70;2.40;;;7.90;61.10;;;;;;6244962;23;20000;-75
2021/03/22 11:36:44;;;;;;;7.72;2.30;;;7.90;60.90;;;;;;6218440;23;20004;-74
2021/03/22 11:39:19;;;;;;;11.48;2.63;;;8.00;60.90;;;;;;6217486;23;20054;-73
2021/03/22 11:42:03;;;;;;;7.20;2.05;;;8.00;60.90;;;;;;6218780;23;20427;-72
2021/03/22 11:44:30;;;;;;;4.07;1.80;;;8.00;60.90;;;;;;6217947;23;20001;-74
2021/03/22 11:47:27;;;;;;;10.13;2.08;;;8.10;61.10;;;;;;6218076;23;20091;-73
2021/03/22 11:49:54;;;;;;;9.20;2.20;;;8.10;61.00;;;;;;6218295;23;20071;-73
2021/03/22 11:52:31;;;;;;;7.90;1.95;;;8.10;61.40;;;;;;6245988;23;20026;-74
2021/03/22 11:55:07;;;;;;;8.80;2.50;;;8.20;60.70;;;;;;6245246;23;19996;-74
2021/03/22 11:57:38;;;;;;;9.02;2.00;;;8.10;60.00;;;;;;6218688;23;20087;-74
2021/03/22 12:00:33;;;;;;;5.30;2.40;;;8.10;60.50;;;;;;6217051;23;20075;-74
2021/03/22 12:03:22;;;;;;;10.45;2.17;;;8.00;60.10;;;;;;6204795;23;20008;-73
2021/03/22 12:06:07;;;;;;;5.90;2.30;;;8.00;61.10;;;;;;6218923;23;20426;-73
2021/03/22 12:08:39;;;;;;;6.50;2.28;;;8.00;60.40;;;;;;6218948;23;19996;-74
2021/03/22 12:11:17;;;;;;;7.07;1.85;;;8.00;60.40;;;;;;6218080;23;20011;-74
2021/03/22 12:13:43;;;;;;;5.38;1.88;;;8.00;60.40;;;;;;6218180;23;20046;-73
2021/03/22 12:16:14;;;;;;;5.57;1.73;;;8.00;60.30;;;;;;6216570;23;20008;-74
2021/03/22 12:18:40;;;;;;;5.38;2.03;;;8.00;59.90;;;;;;6218357;23;20004;-74
2021/03/22 12:21:11;;;;;;;8.25;1.80;;;8.10;60.20;;;;;;6217502;23;20292;-74
2021/03/22 12:23:37;;;;;;;6.40;1.97;;;8.10;60.20;;;;;;6218623;23;20069;-74
2021/03/22 12:26:04;;;;;;;6.90;1.93;;;8.20;60.10;;;;;;6217647;23;20046;-75
2021/03/22 12:28:30;;;;;;;8.57;2.50;;;8.20;59.80;;;;;;6217975;23;20004;-76
2021/03/22 12:30:56;;;;;;;8.27;1.97;;;8.20;60.00;;;;;;6217543;23;20011;-75
2021/03/22 12:33:27;;;;;;;6.72;1.85;;;8.30;60.10;;;;;;6218312;23;20453;-74
2021/03/22 12:35:53;;;;;;;7.00;1.90;;;8.40;59.40;;;;;;6217924;23;20000;-77
2021/03/22 12:38:19;;;;;;;6.07;1.92;;;8.40;59.50;;;;;;6218034;23;20370;-74
2021/03/22 12:40:46;;;;;;;6.15;1.83;;;8.50;59.30;;;;;;6218419;23;20435;-74
2021/03/22 12:43:28;;;;;;;6.03;2.00;;;8.50;59.00;;;;;;6217788;23;20016;-76
2021/03/22 12:45:53;;;;;;;;;;;8.40;58.90;;;;;;6216670;22;20043;-75
2021/03/22 12:48:19;;;;;;;4.80;2.10;;;8.30;58.80;;;;;;6245202;23;20306;-75
2021/03/22 12:50:45;;;;;;;3.83;1.70;;;8.30;59.30;;;;;;6218410;23;20006;-75
2021/03/22 12:53:13;;;;;;;3.83;1.67;;;8.30;59.70;;;;;;6244843;23;20043;-75
2021/03/22 12:55:39;;;;;;;4.75;1.98;;;8.30;59.40;;;;;;6218855;23;20000;-78
2021/03/22 12:58:16;;;;;;;7.43;1.70;;;8.10;59.00;;;;;;6218647;23;20008;-76
2021/03/22 13:00:42;;;;;;;7.17;1.57;;;8.10;58.80;;;;;;6245350;23;19996;-73
2021/03/22 13:03:19;;;;;;;5.40;1.70;;;8.10;59.10;;;;;;6218163;23;20499;-73
2021/03/22 13:05:44;;;;;;;4.07;1.65;;;8.10;58.50;;;;;;6218808;23;20026;-74
2021/03/22 13:08:10;;;;;;;8.13;1.70;;;8.00;59.40;;;;;;6217698;23;20483;-73
2021/03/22 13:10:36;;;;;;;4.80;1.60;;;8.00;58.80;;;;;;6218342;23;20369;-73
2021/03/22 13:13:04;;;;;;;7.07;1.90;;;8.00;58.60;;;;;;6217799;23;20004;-73
2021/03/22 13:15:32;;;;;;;5.25;1.80;;;8.00;58.70;;;;;;6245073;23;20004;-73
2021/03/22 13:17:58;;;;;;;4.65;1.70;;;8.00;59.10;;;;;;6244538;23;20000;-74
2021/03/22 13:20:25;;;;;;;4.25;1.70;;;8.10;59.00;;;;;;6245128;23;20434;-73
2021/03/22 13:22:51;;;;;;;5.45;1.60;;;8.20;59.50;;;;;;6244902;23;20012;-73
2021/03/22 13:25:18;;;;;;;4.63;1.70;;;8.30;59.00;;;;;;6217992;23;20134;-73
2021/03/22 13:27:44;;;;;;;4.25;1.70;;;8.30;58.80;;;;;;6217876;23;20004;-73